Portada
METAR-TAF:

METAR-TAF

Aeroports :

Phetchabun, Tailàndia

latitud: 16-40-33N, longitud: 101-11-42E, altitud: 137 m

Observació

L'informe es va fer fa 2 hores i 29 minuts, a les 01:00 UTC
Vent 2 kt amb direcció variable
Temperatura 20°C
Humitat 64%
Pressió 1013 hPa
Visibilitat: 6000 m

METAR: VTPB 010100Z VRB02KT 6000 NSC 20/13 Q1013 NOSIG

Hora: 10:29 (03:29 UTC)

Pronòstic

L'informe es va fer fa 4 hores i 29 minuts, a les 23:00 UTC
Pronòstic vàlid del 01 a les 00 UTC al 01 a les 24 UTC
Vent 5 kt del Sud/Sud-Est
Visibilitat: 7000 m

TAF: VTPB 282300Z 0100/0124 16005KT 7000 NSC

Observacions i pronòstics meteorològics de més de 4000 aeroports (METAR i TAF).

Les estacions disponibles són els punts grocs i vermells al mapa.

Posi el ratolí al punt desitjat per veure el nom de l'estació.

Feu clic per veure les observacions i els pronòstics meteorològics.

Per canviar el mapa: feu clic els botons verds amb una creu de color negre per apropar; al botó verd amb un guió per allunyar la imatge; o en les fletxes verdes per a mapes adjacents.


METAR-TAF: